Time;durP1;ratioP1;P1;durP2;ratioP2;P2;SDS_P1;SDS_P2;PMS_P1;PMS_P2;Temp;Humidity;BMP_temperature;BMP_pressure;BME280_temperature;BME280_humidity;BME280_pressure;Samples;Min_cycle;Max_cycle;Signal;HPM_P1;HPM_P2
2021/05/03 00:01:04;;;;;;;7.80;4.97;;;8.10;58.00;;;;;;5073827;28;20444;-71
2021/05/03 00:03:31;;;;;;;5.80;4.40;;;8.10;58.00;;;;;;5073532;28;20965;-71
2021/05/03 00:05:58;;;;;;;4.90;3.50;;;8.10;58.10;;;;;;5073740;28;20531;-71
2021/05/03 00:08:24;;;;;;;5.40;4.27;;;8.10;58.20;;;;;;5073922;28;20480;-71
2021/05/03 00:10:51;;;;;;;6.23;3.97;;;8.10;58.20;;;;;;5073721;28;20469;-71
2021/05/03 00:13:18;;;;;;;4.83;3.87;;;8.00;58.20;;;;;;5073656;28;20453;-71
2021/05/03 00:15:44;;;;;;;6.77;5.23;;;8.00;58.00;;;;;;5073652;28;20456;-71
2021/05/03 00:18:11;;;;;;;9.93;4.23;;;8.00;58.20;;;;;;5073921;28;20441;-71
2021/05/03 00:20:38;;;;;;;6.10;3.60;;;7.90;58.30;;;;;;5073572;28;20469;-71
2021/05/03 00:23:04;;;;;;;4.80;3.97;;;7.90;58.50;;;;;;5073659;28;20447;-71
2021/05/03 00:25:31;;;;;;;7.00;4.20;;;7.90;58.70;;;;;;5073559;28;20452;-71
2021/05/03 00:27:57;;;;;;;5.73;3.37;;;7.90;58.70;;;;;;5073516;28;20453;-71
2021/05/03 00:30:24;;;;;;;5.47;4.60;;;7.90;58.80;;;;;;5073345;28;20538;-71
2021/05/03 00:32:50;;;;;;;4.33;3.70;;;7.80;58.60;;;;;;5073453;28;20459;-71
2021/05/03 00:35:18;;;;;;;4.80;3.33;;;7.80;58.60;;;;;;5073420;28;20448;-71
2021/05/03 00:37:45;;;;;;;5.53;3.70;;;7.70;58.70;;;;;;5073159;28;21000;-71
2021/05/03 00:40:11;;;;;;;4.63;3.60;;;7.70;58.80;;;;;;5073063;28;20970;-71
2021/05/03 00:42:38;;;;;;;4.37;2.93;;;7.70;59.00;;;;;;5073423;28;20455;-71
2021/05/03 00:45:09;;;;;;;6.07;3.50;;;7.70;59.00;;;;;;5073305;28;20498;-71
2021/05/03 00:47:37;;;;;;;4.10;3.40;;;7.60;59.10;;;;;;5073375;28;20820;-71
2021/05/03 00:50:03;;;;;;;5.87;3.50;;;7.60;59.20;;;;;;5073115;28;20492;-71
2021/05/03 00:52:29;;;;;;;4.10;3.47;;;7.50;59.40;;;;;;5073529;28;20444;-71
2021/05/03 00:54:56;;;;;;;4.40;3.17;;;7.60;59.40;;;;;;5077314;28;20448;-71
2021/05/03 00:57:23;;;;;;;4.60;3.17;;;7.50;59.20;;;;;;5077399;28;20444;-71
2021/05/03 00:59:50;;;;;;;3.73;3.43;;;7.50;59.20;;;;;;5077209;28;20518;-71
2021/05/03 01:02:17;;;;;;;3.73;3.43;;;7.50;59.50;;;;;;5077483;28;20444;-71
2021/05/03 01:04:43;;;;;;;3.33;2.90;;;7.50;59.50;;;;;;5077239;28;20448;-71
2021/05/03 01:07:09;;;;;;;4.00;2.80;;;7.50;59.50;;;;;;5077145;28;20812;-71
2021/05/03 01:09:35;;;;;;;3.40;3.10;;;7.40;59.40;;;;;;5077038;28;20492;-71
2021/05/03 01:12:03;;;;;;;4.73;3.80;;;7.50;59.70;;;;;;5077023;28;20853;-71
2021/05/03 01:14:30;;;;;;;4.10;3.13;;;7.40;59.40;;;;;;5076945;28;20518;-71
2021/05/03 01:16:56;;;;;;;3.93;3.43;;;7.40;59.50;;;;;;5076815;28;20449;-71
2021/05/03 01:19:22;;;;;;;4.17;3.50;;;7.40;59.60;;;;;;5076746;28;20456;-71
2021/05/03 01:21:50;;;;;;;2.90;2.70;;;7.40;59.70;;;;;;5076706;28;20441;-71
2021/05/03 01:24:18;;;;;;;3.73;3.43;;;7.40;59.70;;;;;;5076699;28;20517;-71
2021/05/03 01:26:45;;;;;;;4.50;3.70;;;7.30;59.70;;;;;;5076632;28;20456;-71
2021/05/03 01:29:12;;;;;;;3.10;2.80;;;7.30;59.90;;;;;;5076460;28;20484;-71
2021/05/03 01:31:39;;;;;;;4.37;3.10;;;7.30;59.90;;;;;;5076569;28;20453;-71
2021/05/03 01:34:06;;;;;;;7.13;3.47;;;7.20;59.90;;;;;;5076624;28;20429;-71
2021/05/03 01:36:36;;;;;;;6.30;3.57;;;7.20;60.00;;;;;;5076431;28;20449;-71
2021/05/03 01:39:05;;;;;;;3.87;3.47;;;7.10;60.00;;;;;;5076272;28;20464;-71
2021/05/03 01:41:31;;;;;;;4.57;3.80;;;7.10;60.40;;;;;;5077061;28;20452;-71
2021/05/03 01:43:57;;;;;;;4.27;3.43;;;7.10;60.60;;;;;;5076947;28;20433;-71
2021/05/03 01:46:25;;;;;;;6.53;3.50;;;7.10;60.70;;;;;;5076391;28;20441;-71
2021/05/03 01:48:52;;;;;;;4.70;3.67;;;7.00;60.80;;;;;;5075823;28;21014;-71
2021/05/03 01:51:18;;;;;;;4.90;4.03;;;7.00;61.10;;;;;;5075998;28;20467;-71
2021/05/03 01:53:44;;;;;;;4.87;3.50;;;7.00;61.50;;;;;;5075933;28;21049;-71
2021/05/03 01:56:14;;;;;;;5.10;3.47;;;7.00;61.60;;;;;;5076176;28;20449;-71
2021/05/03 01:58:40;;;;;;;4.03;3.70;;;7.00;61.70;;;;;;5076041;28;20452;-71
2021/05/03 02:01:06;;;;;;;6.10;4.10;;;7.00;61.90;;;;;;5076173;28;20444;-71
2021/05/03 02:03:33;;;;;;;5.97;4.17;;;7.00;62.00;;;;;;5076343;28;20425;-71
2021/05/03 02:06:00;;;;;;;6.90;4.07;;;7.00;61.90;;;;;;5075110;28;20456;-71
2021/05/03 02:08:26;;;;;;;6.73;4.30;;;6.90;61.70;;;;;;5075660;28;20452;-71
2021/05/03 02:10:54;;;;;;;7.27;4.47;;;7.00;61.80;;;;;;5076972;28;20809;-71
2021/05/03 02:13:22;;;;;;;8.50;3.53;;;7.00;61.90;;;;;;5075878;28;20965;-71
2021/05/03 02:15:48;;;;;;;7.47;3.97;;;7.00;61.90;;;;;;5075893;28;20860;-71
2021/05/03 02:18:15;;;;;;;8.67;4.40;;;6.90;61.80;;;;;;5075876;28;20440;-71
2021/05/03 02:20:42;;;;;;;6.80;4.20;;;6.90;62.00;;;;;;5075746;28;21037;-71
2021/05/03 02:23:09;;;;;;;5.83;4.00;;;6.90;62.10;;;;;;5075453;28;20946;-71
2021/05/03 02:25:35;;;;;;;5.93;4.40;;;6.80;62.10;;;;;;5075383;28;20945;-71
2021/05/03 02:28:01;;;;;;;5.17;3.90;;;6.80;62.20;;;;;;5075664;28;20444;-71
2021/05/03 02:30:28;;;;;;;5.23;4.30;;;6.80;62.30;;;;;;5075492;28;20480;-71
2021/05/03 02:32:55;;;;;;;4.50;3.93;;;6.80;62.30;;;;;;5075312;28;20432;-71
2021/05/03 02:35:23;;;;;;;7.77;4.70;;;6.80;62.40;;;;;;5075531;28;20456;-71
2021/05/03 02:37:56;;;;;;;5.17;4.67;;;6.80;62.30;;;;;;5075498;28;20780;-71
2021/05/03 02:40:24;;;;;;;4.57;4.13;;;6.80;62.40;;;;;;5075435;28;20468;-71
2021/05/03 02:42:52;;;;;;;6.00;4.80;;;6.80;62.40;;;;;;5075104;28;20938;-71
2021/05/03 02:45:18;;;;;;;6.20;4.93;;;6.80;62.60;;;;;;5075155;28;20965;-71
2021/05/03 02:47:46;;;;;;;5.00;4.53;;;6.70;62.20;;;;;;5075216;28;20445;-71
2021/05/03 02:50:14;;;;;;;6.37;5.10;;;6.70;62.40;;;;;;5075191;28;20829;-71
2021/05/03 02:52:41;;;;;;;5.83;4.70;;;6.70;62.70;;;;;;5075147;28;20986;-71
2021/05/03 02:55:10;;;;;;;5.03;4.17;;;6.70;62.60;;;;;;5074783;28;20502;-71
2021/05/03 02:57:37;;;;;;;8.20;4.57;;;6.70;62.60;;;;;;5074783;28;20448;-71
2021/05/03 03:00:05;;;;;;;5.67;4.47;;;6.60;62.50;;;;;;5075000;28;20518;-71
2021/05/03 03:02:31;;;;;;;7.97;4.43;;;6.60;62.30;;;;;;5074990;28;20448;-71
2021/05/03 03:04:59;;;;;;;6.47;4.43;;;6.60;62.30;;;;;;5074909;28;20826;-71
2021/05/03 03:07:25;;;;;;;6.00;4.27;;;6.60;62.40;;;;;;5074867;28;20433;-71
2021/05/03 03:09:51;;;;;;;6.70;4.67;;;6.60;62.60;;;;;;5074703;28;20488;-71
2021/05/03 03:12:18;;;;;;;6.67;4.67;;;6.60;62.60;;;;;;5074508;28;20963;-71
2021/05/03 03:14:44;;;;;;;5.10;3.67;;;6.60;62.60;;;;;;5075008;28;20487;-71
2021/05/03 03:17:10;;;;;;;4.87;4.07;;;6.60;62.60;;;;;;5074586;28;20441;-71
2021/05/03 03:19:38;;;;;;;7.67;4.60;;;6.50;62.40;;;;;;5074539;28;20460;-71
2021/05/03 03:22:05;;;;;;;4.63;4.23;;;6.50;62.40;;;;;;5074259;28;20452;-71
2021/05/03 03:24:31;;;;;;;4.40;4.00;;;6.40;62.10;;;;;;5074567;28;20451;-71
2021/05/03 03:26:57;;;;;;;4.87;4.33;;;6.30;62.00;;;;;;5074217;28;20934;-71
2021/05/03 03:29:24;;;;;;;6.00;4.00;;;6.30;61.90;;;;;;5074272;28;20488;-71
2021/05/03 03:31:50;;;;;;;5.33;4.20;;;6.20;62.00;;;;;;5074387;28;20456;-71
2021/05/03 03:34:16;;;;;;;22.30;4.50;;;6.20;62.30;;;;;;5074345;28;20456;-71
2021/05/03 03:36:42;;;;;;;8.40;4.20;;;6.20;62.30;;;;;;5074279;28;20448;-71
2021/05/03 03:39:09;;;;;;;4.73;4.20;;;6.10;62.40;;;;;;5073833;28;20978;-71
2021/05/03 03:41:36;;;;;;;7.87;4.80;;;6.10;62.40;;;;;;5074204;28;20452;-71
2021/05/03 03:44:03;;;;;;;6.83;4.60;;;6.00;62.30;;;;;;5073841;28;20918;-71
2021/05/03 03:46:29;;;;;;;5.07;4.50;;;6.00;62.60;;;;;;5074085;28;20498;-71
2021/05/03 03:48:56;;;;;;;9.33;5.40;;;6.00;62.70;;;;;;5073690;28;20496;-71
2021/05/03 03:51:22;;;;;;;6.43;4.63;;;6.00;62.90;;;;;;5073976;28;20548;-71
2021/05/03 03:53:49;;;;;;;5.33;4.63;;;6.00;63.10;;;;;;5073670;28;20444;-71
2021/05/03 03:56:18;;;;;;;7.07;4.63;;;6.00;63.30;;;;;;5073917;28;20930;-71
2021/05/03 03:58:44;;;;;;;5.97;4.93;;;6.00;63.50;;;;;;5073848;28;20594;-71
2021/05/03 04:01:12;;;;;;;5.27;4.50;;;5.90;63.60;;;;;;5073896;28;20458;-71
2021/05/03 04:03:46;;;;;;;5.70;5.03;;;5.90;64.10;;;;;;5073911;28;20481;-71
2021/05/03 04:06:19;;;;;;;6.77;4.60;;;5.90;64.30;;;;;;5073910;28;20526;-71
2021/05/03 04:08:50;;;;;;;5.17;4.77;;;5.90;65.10;;;;;;5073710;28;20552;-71
2021/05/03 04:11:30;;;;;;;7.83;5.23;;;5.90;65.70;;;;;;5073512;28;20472;-71
2021/05/03 04:24:52;;;;;;;7.30;4.93;;;6.20;67.80;;;;;;5073417;28;20428;-70
2021/05/03 04:27:20;;;;;;;10.00;4.93;;;6.30;66.60;;;;;;5073329;28;20438;-72
2021/05/03 04:29:46;;;;;;;7.33;5.80;;;6.30;66.60;;;;;;5072996;28;21005;-71
2021/05/03 04:32:13;;;;;;;7.03;5.37;;;6.40;66.80;;;;;;5073548;28;20521;-71
2021/05/03 04:34:39;;;;;;;9.43;5.90;;;6.50;67.20;;;;;;5073482;28;20459;-70
2021/05/03 04:37:05;;;;;;;6.53;5.37;;;6.50;67.50;;;;;;5073464;28;20448;-71
2021/05/03 04:39:32;;;;;;;6.83;6.03;;;6.60;67.30;;;;;;5073634;28;20456;-72
2021/05/03 04:41:58;;;;;;;7.37;5.43;;;6.60;67.30;;;;;;5073384;28;20455;-68
2021/05/03 04:44:25;;;;;;;6.17;5.57;;;6.70;67.10;;;;;;5073431;28;20848;-67
2021/05/03 04:46:51;;;;;;;8.83;6.27;;;6.80;66.60;;;;;;5073425;28;20444;-67
2021/05/03 04:49:17;;;;;;;7.80;6.37;;;6.80;66.50;;;;;;5073224;28;20484;-67
2021/05/03 04:51:45;;;;;;;6.90;5.67;;;6.80;66.80;;;;;;5073054;28;20551;-68
2021/05/03 04:54:11;;;;;;;8.70;6.00;;;6.90;67.40;;;;;;5073125;28;20821;-68
2021/05/03 04:56:37;;;;;;;9.33;6.47;;;6.80;67.80;;;;;;5073259;28;20480;-67
2021/05/03 04:59:04;;;;;;;7.33;6.60;;;6.90;66.90;;;;;;5072976;28;21019;-67
2021/05/03 05:01:31;;;;;;;7.10;6.37;;;7.00;67.20;;;;;;5072896;28;20452;-67
2021/05/03 05:03:58;;;;;;;9.50;6.13;;;7.00;68.20;;;;;;5073359;28;20480;-69
2021/05/03 05:06:24;;;;;;;7.40;5.63;;;7.00;67.10;;;;;;5073175;28;20452;-68
2021/05/03 05:08:50;;;;;;;9.47;6.80;;;7.10;67.60;;;;;;5073296;28;20484;-68
2021/05/03 05:11:16;;;;;;;11.03;6.90;;;7.20;67.50;;;;;;5073158;28;20934;-68
2021/05/03 05:13:43;;;;;;;8.20;6.40;;;7.20;67.90;;;;;;5073069;28;20448;-68
2021/05/03 05:16:09;;;;;;;12.27;6.73;;;7.30;68.10;;;;;;5073282;28;20441;-68
2021/05/03 05:18:36;;;;;;;12.77;6.57;;;7.40;68.20;;;;;;5073196;28;20445;-69
2021/05/03 05:21:03;;;;;;;9.80;6.80;;;7.50;67.90;;;;;;5072859;28;20453;-68
2021/05/03 05:23:29;;;;;;;9.43;7.00;;;7.50;68.20;;;;;;5073061;28;20433;-68
2021/05/03 05:25:56;;;;;;;7.93;5.60;;;7.60;68.50;;;;;;5073042;28;20448;-68
2021/05/03 05:28:22;;;;;;;11.77;6.90;;;7.70;69.10;;;;;;5072951;28;20440;-68
2021/05/03 05:30:48;;;;;;;9.40;5.50;;;7.70;68.70;;;;;;5072500;28;21037;-68
2021/05/03 05:33:14;;;;;;;9.27;6.37;;;7.80;67.90;;;;;;5072646;28;20437;-68
2021/05/03 05:35:41;;;;;;;10.33;6.60;;;7.90;67.80;;;;;;5072577;28;20935;-68
2021/05/03 05:38:08;;;;;;;9.97;6.63;;;7.90;67.00;;;;;;5073121;28;20451;-68
2021/05/03 05:40:34;;;;;;;10.23;6.33;;;8.00;66.90;;;;;;5074306;28;20461;-68
2021/05/03 05:43:00;;;;;;;9.97;5.57;;;8.10;66.70;;;;;;5076586;28;20449;-68
2021/05/03 05:45:26;;;;;;;17.63;5.90;;;8.10;66.70;;;;;;5076601;28;20448;-68
2021/05/03 05:47:53;;;;;;;11.43;6.60;;;8.20;66.50;;;;;;5076611;28;20444;-68
2021/05/03 05:50:19;;;;;;;9.80;5.90;;;8.20;66.00;;;;;;5076077;28;20492;-68
2021/05/03 05:52:46;;;;;;;12.67;6.20;;;8.30;65.10;;;;;;5076438;28;20472;-68
2021/05/03 05:55:12;;;;;;;10.23;6.30;;;8.30;65.00;;;;;;5076409;28;20429;-68
2021/05/03 05:57:39;;;;;;;11.90;6.83;;;8.30;64.80;;;;;;5076320;28;20450;-67
2021/05/03 06:00:06;;;;;;;10.70;6.90;;;8.30;64.20;;;;;;5076644;28;20467;-68
2021/05/03 06:02:32;;;;;;;8.77;6.33;;;8.20;64.00;;;;;;5076480;28;20432;-68
2021/05/03 06:04:58;;;;;;;10.83;7.70;;;8.20;63.60;;;;;;5076269;28;20440;-68
2021/05/03 06:07:25;;;;;;;8.77;6.80;;;8.20;63.70;;;;;;5076117;28;20502;-68
2021/05/03 06:09:52;;;;;;;11.07;7.07;;;8.20;64.10;;;;;;5075960;28;20481;-67
2021/05/03 06:12:18;;;;;;;9.03;6.67;;;8.20;64.00;;;;;;5076079;28;20433;-68
2021/05/03 06:14:44;;;;;;;10.30;7.07;;;8.10;64.30;;;;;;5076041;28;20444;-68
2021/05/03 06:17:11;;;;;;;10.57;6.70;;;8.20;64.50;;;;;;5075651;28;20433;-68
2021/05/03 06:19:37;;;;;;;9.67;6.80;;;8.20;63.90;;;;;;5075867;28;20479;-68
2021/05/03 06:22:03;;;;;;;12.20;7.23;;;8.20;64.00;;;;;;5076050;28;20433;-68
2021/05/03 06:24:29;;;;;;;10.53;7.13;;;8.20;63.90;;;;;;5075912;28;20427;-69
2021/05/03 06:26:56;;;;;;;11.07;7.30;;;8.30;64.60;;;;;;5075695;28;20463;-68
2021/05/03 06:29:23;;;;;;;14.73;6.87;;;8.40;64.20;;;;;;5075495;28;20493;-68
2021/05/03 06:31:49;;;;;;;8.67;6.67;;;8.50;63.40;;;;;;5075782;28;20425;-68
2021/05/03 06:34:17;;;;;;;7.23;6.50;;;8.50;62.70;;;;;;5075568;28;20930;-68
2021/05/03 06:36:43;;;;;;;11.90;6.00;;;8.50;63.10;;;;;;5075712;28;20445;-68
2021/05/03 06:39:09;;;;;;;9.97;7.10;;;8.50;62.80;;;;;;5075556;28;20460;-68
2021/05/03 06:41:35;;;;;;;14.67;7.23;;;8.60;62.40;;;;;;5075461;28;20445;-68
2021/05/03 06:44:03;;;;;;;18.73;7.20;;;8.60;62.00;;;;;;5075576;28;20468;-68
2021/05/03 06:46:29;;;;;;;12.97;6.97;;;8.70;61.90;;;;;;5075038;28;20899;-68
2021/05/03 06:48:55;;;;;;;7.70;6.40;;;8.80;61.80;;;;;;5075197;28;20455;-68
2021/05/03 06:51:21;;;;;;;11.93;7.30;;;8.90;61.10;;;;;;5074680;28;20525;-68
2021/05/03 06:53:48;;;;;;;7.17;5.83;;;9.10;61.80;;;;;;5075187;28;20429;-68
2021/05/03 06:56:14;;;;;;;18.67;7.70;;;9.20;61.70;;;;;;5075208;28;20431;-68
2021/05/03 06:58:40;;;;;;;7.03;6.30;;;9.40;60.90;;;;;;5075064;28;20440;-68
2021/05/03 07:01:07;;;;;;;12.43;6.70;;;9.60;60.70;;;;;;5075105;28;20441;-68
2021/05/03 07:03:33;;;;;;;10.30;6.73;;;9.80;60.80;;;;;;5074989;28;20451;-69
2021/05/03 07:06:00;;;;;;;9.63;5.80;;;10.00;58.90;;;;;;5075021;28;20463;-68
2021/05/03 07:08:26;;;;;;;6.50;5.70;;;10.10;58.00;;;;;;5074627;28;20933;-68
2021/05/03 07:10:53;;;;;;;9.00;6.13;;;10.20;57.50;;;;;;5074685;28;20476;-68
2021/05/03 07:13:20;;;;;;;8.00;6.27;;;10.30;56.70;;;;;;5074773;28;20447;-68
2021/05/03 07:15:46;;;;;;;8.60;5.60;;;10.30;56.70;;;;;;5074713;28;20448;-68
2021/05/03 07:18:13;;;;;;;6.97;6.20;;;10.40;56.90;;;;;;5074429;28;20937;-68
2021/05/03 07:20:40;;;;;;;10.37;6.30;;;10.60;57.10;;;;;;5074283;28;20472;-68
2021/05/03 07:23:08;;;;;;;10.83;5.40;;;10.70;56.50;;;;;;5074279;28;20428;-68
2021/05/03 07:25:35;;;;;;;13.47;6.47;;;10.90;56.10;;;;;;5074491;28;20451;-68
2021/05/03 07:28:01;;;;;;;5.27;4.77;;;11.00;55.00;;;;;;5074444;28;20444;-68
2021/05/03 07:30:28;;;;;;;6.53;5.70;;;11.20;54.40;;;;;;5074360;28;20484;-69
2021/05/03 07:32:54;;;;;;;9.50;4.70;;;11.40;53.80;;;;;;5074391;28;20441;-68
2021/05/03 07:35:21;;;;;;;10.60;4.93;;;11.50;53.20;;;;;;5074341;28;20453;-68
2021/05/03 07:37:47;;;;;;;7.53;4.90;;;11.70;52.20;;;;;;5074017;28;20467;-68
2021/05/03 07:40:14;;;;;;;12.87;4.03;;;11.80;51.80;;;;;;5074190;28;20568;-68
2021/05/03 07:42:41;;;;;;;7.87;5.00;;;11.90;52.20;;;;;;5074218;28;20445;-68
2021/05/03 07:45:08;;;;;;;9.33;4.60;;;12.00;52.20;;;;;;5074161;28;20498;-69
2021/05/03 07:47:35;;;;;;;7.77;5.13;;;12.10;50.90;;;;;;5074147;28;20926;-68
2021/05/03 07:50:01;;;;;;;11.30;5.67;;;12.10;51.00;;;;;;5073895;28;20550;-68
2021/05/03 07:52:28;;;;;;;5.77;5.10;;;12.10;50.80;;;;;;5074035;28;20491;-69
2021/05/03 07:54:54;;;;;;;6.40;5.17;;;12.30;50.70;;;;;;5074202;28;20433;-68
2021/05/03 07:57:20;;;;;;;5.97;4.30;;;12.30;50.10;;;;;;5073950;28;20445;-68
2021/05/03 07:59:46;;;;;;;4.53;4.13;;;12.50;50.60;;;;;;5073777;28;21009;-68
2021/05/03 08:02:13;;;;;;;5.47;4.43;;;12.50;49.60;;;;;;5073426;28;20449;-68
2021/05/03 08:04:39;;;;;;;5.60;5.00;;;12.70;49.20;;;;;;5073712;28;20495;-68
2021/05/03 08:07:05;;;;;;;5.27;4.40;;;12.90;49.00;;;;;;5073971;28;20440;-68
2021/05/03 08:09:32;;;;;;;5.73;4.10;;;13.00;49.00;;;;;;5073806;28;20869;-68
2021/05/03 08:11:59;;;;;;;7.10;4.60;;;13.20;48.50;;;;;;5073827;28;20429;-69
2021/05/03 08:14:25;;;;;;;5.70;5.10;;;13.30;47.30;;;;;;5073684;28;20425;-68
2021/05/03 08:16:54;;;;;;;10.97;4.80;;;13.30;43.80;;;;;;5073623;28;20451;-68
2021/05/03 08:19:22;;;;;;;9.53;4.63;;;13.40;44.10;;;;;;5073313;28;20490;-68
2021/05/03 08:21:48;;;;;;;6.83;4.87;;;13.40;43.60;;;;;;5073838;28;20527;-68
2021/05/03 08:24:14;;;;;;;6.30;4.90;;;13.50;44.50;;;;;;5073687;28;20436;-68
2021/05/03 08:26:42;;;;;;;7.97;5.70;;;13.60;44.90;;;;;;5073622;28;20448;-68
2021/05/03 08:29:08;;;;;;;6.37;5.67;;;13.70;45.00;;;;;;5073380;28;20476;-68
2021/05/03 08:31:34;;;;;;;6.40;5.53;;;13.80;45.30;;;;;;5073539;28;20444;-68
2021/05/03 08:34:00;;;;;;;8.60;5.23;;;13.80;43.40;;;;;;5073298;28;20910;-68
2021/05/03 08:36:27;;;;;;;5.90;5.30;;;13.90;44.10;;;;;;5073820;28;20440;-68
2021/05/03 08:38:53;;;;;;;5.10;4.60;;;14.00;44.40;;;;;;5073108;28;20429;-68
2021/05/03 08:41:19;;;;;;;7.03;5.87;;;14.10;43.50;;;;;;5073554;28;20437;-68
2021/05/03 08:43:49;;;;;;;9.40;6.40;;;14.10;44.40;;;;;;5073453;28;20451;-69
2021/05/03 08:46:26;;;;;;;7.73;6.13;;;14.20;43.70;;;;;;5073377;28;20448;-69
2021/05/03 08:48:57;;;;;;;9.40;6.40;;;14.20;42.50;;;;;;5072993;28;20438;-68
2021/05/03 08:51:33;;;;;;;10.60;5.90;;;14.00;42.90;;;;;;5072983;28;20459;-69
2021/05/03 08:54:03;;;;;;;6.90;6.20;;;13.90;44.30;;;;;;5073542;28;20433;-68
2021/05/03 08:56:29;;;;;;;6.17;5.63;;;13.90;44.40;;;;;;5073277;28;20449;-69
2021/05/03 08:58:57;;;;;;;7.70;6.33;;;13.80;43.40;;;;;;5072934;28;20459;-69
2021/05/03 09:01:24;;;;;;;7.60;5.67;;;13.70;42.90;;;;;;5072883;28;20864;-69
2021/05/03 09:03:52;;;;;;;7.63;6.00;;;13.80;45.00;;;;;;5073245;28;20444;-68
2021/05/03 09:06:18;;;;;;;9.77;6.30;;;14.00;44.90;;;;;;5073288;28;20476;-69
2021/05/03 09:08:45;;;;;;;6.37;5.73;;;14.10;42.80;;;;;;5073250;28;20452;-68
2021/05/03 09:11:14;;;;;;;6.60;5.90;;;14.10;42.50;;;;;;5073117;28;20552;-68
2021/05/03 09:13:41;;;;;;;6.07;5.47;;;14.20;42.70;;;;;;5073577;28;20448;-69
2021/05/03 09:16:18;;;;;;;6.87;5.70;;;14.40;43.10;;;;;;5077060;28;20874;-69
2021/05/03 09:18:44;;;;;;;8.97;5.90;;;14.50;40.50;;;;;;5076629;28;20432;-69
2021/05/03 09:21:18;;;;;;;6.33;5.73;;;14.60;40.90;;;;;;5077012;28;20813;-69
2021/05/03 09:24:07;;;;;;;6.70;6.10;;;14.80;40.30;;;;;;5076949;28;20501;-68
2021/05/03 09:26:40;;;;;;;7.53;5.70;;;14.90;40.40;;;;;;5076858;28;20432;-68
2021/05/03 09:29:28;;;;;;;7.40;5.57;;;15.00;40.60;;;;;;5076683;28;20471;-69
2021/05/03 09:32:04;;;;;;;6.60;6.00;;;15.20;39.90;;;;;;5076761;28;20832;-69
2021/05/03 09:34:32;;;;;;;8.17;5.97;;;15.30;39.70;;;;;;5076739;28;20482;-69
2021/05/03 09:37:26;;;;;;;6.10;5.50;;;15.30;39.40;;;;;;5076704;28;20433;-68
2021/05/03 09:40:05;;;;;;;6.87;5.80;;;15.30;37.80;;;;;;5076615;28;20475;-69
2021/05/03 09:42:47;;;;;;;10.00;5.97;;;15.40;38.50;;;;;;5076587;28;20436;-69
2021/05/03 09:45:14;;;;;;;9.43;6.20;;;15.30;38.80;;;;;;5076584;28;20436;-69
2021/05/03 09:47:42;;;;;;;7.37;6.13;;;15.60;38.50;;;;;;5076464;28;20466;-69
2021/05/03 09:50:11;;;;;;;6.73;5.90;;;15.70;39.10;;;;;;5076174;28;20523;-69
2021/05/03 09:52:38;;;;;;;6.90;6.00;;;15.70;39.20;;;;;;5076487;28;20502;-68
2021/05/03 09:55:33;;;;;;;8.03;6.27;;;15.80;38.10;;;;;;5076379;28;20444;-68
2021/05/03 09:58:17;;;;;;;8.37;6.33;;;16.00;38.90;;;;;;5076315;28;20440;-68
2021/05/03 10:00:45;;;;;;;7.00;6.40;;;16.10;38.60;;;;;;5076334;28;20542;-68
2021/05/03 10:03:34;;;;;;;6.90;6.30;;;16.20;38.30;;;;;;5076053;28;20433;-68
2021/05/03 10:06:00;;;;;;;7.07;6.40;;;16.40;37.30;;;;;;5075952;28;20966;-69
2021/05/03 10:08:27;;;;;;;9.07;6.60;;;16.60;35.60;;;;;;5076219;28;20527;-69
2021/05/03 10:10:58;;;;;;;8.30;7.00;;;16.90;37.10;;;;;;5075975;28;20583;-69
2021/05/03 10:13:25;;;;;;;6.63;6.07;;;17.00;34.50;;;;;;5076175;28;20440;-71
2021/05/03 10:15:55;;;;;;;11.00;6.63;;;17.30;36.80;;;;;;5076045;28;20452;-69
2021/05/03 10:18:21;;;;;;;7.20;6.50;;;17.80;35.40;;;;;;5075982;28;20448;-69
2021/05/03 10:20:48;;;;;;;8.53;6.60;;;18.20;32.60;;;;;;5075815;28;20472;-69
2021/05/03 10:23:15;;;;;;;7.10;6.40;;;18.50;33.50;;;;;;5076058;28;20528;-69
2021/05/03 10:25:42;;;;;;;7.43;6.73;;;19.00;32.60;;;;;;5074968;28;20493;-69
2021/05/03 10:28:10;;;;;;;10.07;6.83;;;19.30;32.50;;;;;;5075941;28;20501;-69
2021/05/03 10:30:41;;;;;;;8.60;7.70;;;19.50;34.30;;;;;;5075629;28;20511;-69
2021/05/03 10:33:09;;;;;;;10.10;7.00;;;19.30;31.90;;;;;;5075699;28;20437;-69
2021/05/03 10:35:40;;;;;;;7.87;7.07;;;19.20;32.90;;;;;;5075694;28;20497;-69
2021/05/03 10:38:27;;;;;;;7.80;7.10;;;18.80;33.00;;;;;;5075819;28;20436;-69
2021/05/03 10:40:53;;;;;;;7.50;6.90;;;18.20;33.20;;;;;;5075118;28;20471;-69
2021/05/03 10:43:25;;;;;;;9.77;8.10;;;17.60;32.90;;;;;;5075522;28;20486;-69
2021/05/03 10:46:49;;;;;;;7.83;7.13;;;17.10;33.60;;;;;;5075392;28;20494;-69
2021/05/03 10:49:03;;;;;;;6.90;6.37;;;16.90;35.50;;;;;;5074866;28;20471;-69
2021/05/03 10:51:48;;;;;;;7.20;6.50;;;17.60;35.20;;;;;;5074993;28;20455;-69
2021/05/03 10:54:34;;;;;;;8.07;6.77;;;18.00;33.70;;;;;;5075294;28;20429;-69
2021/05/03 10:57:03;;;;;;;7.77;6.53;;;18.60;32.30;;;;;;5075164;28;20836;-69
2021/05/03 10:59:47;;;;;;;6.70;6.00;;;19.20;32.40;;;;;;5075082;28;20461;-69
2021/05/03 11:02:15;;;;;;;6.60;6.00;;;19.00;32.10;;;;;;5074821;28;20425;-69
2021/05/03 11:05:09;;;;;;;8.33;7.47;;;18.60;31.90;;;;;;5074679;28;20943;-69
2021/05/03 11:07:35;;;;;;;8.53;6.93;;;18.00;31.40;;;;;;5074973;28;20451;-69
2021/05/03 11:10:05;;;;;;;6.97;6.03;;;18.20;32.90;;;;;;5074903;28;20492;-70
2021/05/03 11:12:34;;;;;;;6.67;6.00;;;18.90;31.00;;;;;;5076188;28;20938;-70
2021/05/03 11:15:27;;;;;;;7.97;5.83;;;19.20;31.40;;;;;;5076028;28;20433;-70
2021/05/03 11:18:24;;;;;;;8.40;6.43;;;20.20;30.50;;;;;;5076123;28;20874;-69
2021/05/03 11:20:58;;;;;;;7.87;7.10;;;19.60;29.30;;;;;;5070270;28;20476;-69
2021/05/03 11:23:30;;;;;;;7.27;6.57;;;18.60;30.00;;;;;;5074668;28;20433;-69
2021/05/03 11:25:56;;;;;;;7.17;6.47;;;17.90;30.00;;;;;;5074296;28;20428;-69
2021/05/03 11:28:26;;;;;;;7.57;6.97;;;17.70;31.90;;;;;;5074639;28;20475;-69
2021/05/03 11:30:58;;;;;;;8.53;7.80;;;17.60;31.70;;;;;;5074405;28;20488;-69
2021/05/03 11:33:36;;;;;;;8.83;7.00;;;17.20;32.10;;;;;;5074468;28;20437;-69
2021/05/03 11:36:14;;;;;;;9.13;8.10;;;17.10;34.90;;;;;;5074467;28;20490;-69
2021/05/03 11:38:57;;;;;;;9.40;6.63;;;16.80;34.40;;;;;;5074087;28;20918;-69
2021/05/03 11:44:22;;;;;;;8.63;6.70;;;17.30;32.50;;;;;;5073605;28;20486;-69
2021/05/03 11:46:49;;;;;;;6.57;5.90;;;18.20;31.20;;;;;;5073920;28;20910;-68
2021/05/03 11:49:17;;;;;;;8.13;7.30;;;18.20;29.80;;;;;;5074227;28;20475;-69
2021/05/03 11:51:45;;;;;;;11.87;6.70;;;17.80;30.40;;;;;;5073726;28;20505;-69
2021/05/03 11:54:26;;;;;;;7.00;6.33;;;17.40;32.10;;;;;;5074180;28;20425;-69
2021/05/03 11:57:01;;;;;;;6.70;6.10;;;17.40;33.40;;;;;;5073854;28;20983;-69
2021/05/03 11:59:27;;;;;;;10.50;6.93;;;18.10;33.20;;;;;;5073969;28;20492;-69
2021/05/03 12:02:02;;;;;;;9.03;7.13;;;18.20;31.90;;;;;;5074016;28;20429;-69
2021/05/03 12:04:33;;;;;;;7.33;6.53;;;18.00;32.40;;;;;;5073875;28;20428;-68
2021/05/03 12:06:59;;;;;;;8.23;7.47;;;17.60;32.00;;;;;;5073895;28;20436;-68
2021/05/03 12:09:26;;;;;;;7.97;7.17;;;17.60;32.40;;;;;;5073603;28;20465;-69
2021/05/03 12:11:58;;;;;;;8.43;7.37;;;17.70;33.10;;;;;;5073733;28;20482;-68
2021/05/03 12:14:45;;;;;;;8.40;6.70;;;18.10;32.70;;;;;;5073487;28;20966;-69
2021/05/03 12:17:21;;;;;;;8.53;6.43;;;18.40;33.70;;;;;;5073745;28;20433;-69
2021/05/03 12:19:49;;;;;;;6.07;5.57;;;18.40;32.20;;;;;;5073906;28;20464;-69
2021/05/03 12:22:15;;;;;;;6.23;5.73;;;17.80;31.30;;;;;;5073688;28;20439;-69
2021/05/03 12:24:43;;;;;;;8.27;6.10;;;17.50;32.40;;;;;;5073474;28;20433;-69
2021/05/03 12:27:10;;;;;;;7.90;5.77;;;16.80;31.80;;;;;;5073733;28;20431;-69
2021/05/03 12:29:38;;;;;;;6.47;5.80;;;16.30;32.70;;;;;;5073583;28;20836;-69
2021/05/03 12:32:10;;;;;;;9.90;5.77;;;16.30;35.20;;;;;;5073808;28;20483;-69
2021/05/03 12:34:41;;;;;;;6.63;6.03;;;16.20;35.10;;;;;;5073507;28;20838;-69
2021/05/03 12:37:12;;;;;;;4.93;4.40;;;16.40;35.20;;;;;;5073592;28;20467;-70
2021/05/03 12:39:54;;;;;;;6.57;4.90;;;16.90;33.80;;;;;;5073456;28;20488;-69
2021/05/03 12:42:21;;;;;;;5.13;4.83;;;17.70;33.10;;;;;;5073551;28;20447;-69
2021/05/03 12:44:52;;;;;;;7.50;5.13;;;18.20;30.30;;;;;;5073375;28;20440;-69
2021/05/03 12:47:39;;;;;;;5.40;4.87;;;18.30;31.90;;;;;;5073459;28;20793;-69
2021/05/03 12:50:15;;;;;;;6.23;4.90;;;18.30;31.50;;;;;;5078529;28;20545;-69
2021/05/03 12:52:46;;;;;;;8.10;4.77;;;18.50;31.80;;;;;;5080218;28;20772;-69
2021/05/03 12:55:38;;;;;;;5.43;4.77;;;19.10;30.90;;;;;;5080310;28;20428;-70
2021/05/03 12:58:17;;;;;;;4.60;4.30;;;20.20;29.20;;;;;;5080057;28;20440;-69
2021/05/03 13:00:54;;;;;;;5.57;4.60;;;20.90;28.10;;;;;;5079973;28;20499;-69
2021/05/03 13:03:31;;;;;;;12.23;4.70;;;20.70;28.30;;;;;;5080118;28;20499;-69
2021/05/03 13:06:13;;;;;;;6.20;5.03;;;20.20;26.80;;;;;;5079927;28;20494;-69
2021/05/03 13:09:00;;;;;;;6.93;4.93;;;19.40;28.60;;;;;;5079946;28;20429;-69
2021/05/03 13:28:59;;;;;;;5.90;5.43;;;18.30;31.50;;;;;;5079181;28;20468;-69
2021/05/03 13:31:26;;;;;;;7.53;5.83;;;18.70;30.90;;;;;;5079558;28;21041;-70